ADDS METAR Data INFO
IDs: Format: Raw Decoded Include TAF

Data at: 1857 UTC 19 Sep 2017

Region: TOP
KATL 191852Z VRB03KT 10SM FEW060 FEW250 31/16 A2999 RMK AO2 SLP143 T03060161

KBOS 191854Z 03016KT 10SM OVC007 18/17 A3004 RMK AO2 SLP170 T01830172

KBWI 191854Z 01009KT 10SM FEW026 SCT048 SCT160 SCT250 28/19 A2991 RMK AO2 SLP127 T02780194

KCLE 191851Z 20006KT 10SM SCT055 BKN100 OVC130 28/18 A2999 RMK AO2 SLP149 T02780183

KCLT 191852Z VRB03KT 10SM SCT038 BKN046 29/19 A2999 RMK AO2 SLP148 T02940194

KCVG 191852Z 09004KT 10SM BKN140 BKN180 24/19 A2997 RMK AO2 SLP138 T02390194

KDCA 191852Z 35014KT 10SM SCT040 SCT230 28/19 A2993 RMK AO2 SLP135 T02830194

KDEN 191853Z 21006G15KT 10SM FEW100 SCT140 BKN220 28/M12 A2964 RMK AO2 SLP952 T02831117

KDFW 191853Z 18012G19KT 10SM FEW050 SCT250 34/22 A2985 RMK AO2 SLP097 T03440222

KDTW 191853Z 11003KT 3SM -RA BR FEW010 BKN045 OVC080 21/21 A2998 RMK AO2 RAB30 SLP148 P0000 T02110206 $

KEWR 191851Z 04015G26KT 10SM FEW030 BKN039 OVC055 26/17 A2991 RMK AO2 PK WND 03026/1809 SLP128 T02610172

KFLL 191853Z 07008KT 10SM FEW035 FEW250 33/26 A2990 RMK AO2 SLP123 T03280256

KIAD 191852Z 36010KT 10SM SCT035 SCT250 27/19 A2995 RMK AO2 SLP140 T02670189

KIAH 191853Z 19007KT 10SM SCT038 BKN250 33/23 A2992 RMK AO2 LTG DSNT E SLP130 CB DSNT E MOV NE TCU DSNT SE T03330228

KJFK 191851Z 02017G24KT 2SM R04R/3000VP6000FT RA BR BKN050 BKN065 OVC075 21/19 A2992 RMK AO2 PK WND 02027/1829 SLP131 P0019 T02060194

KLAS 191756Z 20007G18KT 160V230 10SM SCT250 27/06 A2981 RMK AO2 SLP068 T02720056 10278 20239 50012

KLAX 191853Z 25008KT 10SM BKN024 OVC033 21/16 A2994 RMK AO2 SLP136 T02110161

KLGA 191851Z 05017KT 9SM -RA BKN034 BKN043 OVC050 23/19 A2992 RMK AO2 RAB05 SLP132 P0000 T02330194

KMCO 191853Z 09005KT 10SM FEW035 OVC070 27/24 A2995 RMK AO2 SLP142 T02720239

KMDW 191853Z 06010KT 10SM FEW025 FEW110 SCT250 24/18 A2993 RMK AO2 SLP127 T02440178

KMEM 191854Z 24004KT 10SM FEW042 32/22 A2993 RMK AO2 SLP131 T03220217

KMIA 191853Z 28005KT 10SM FEW040 FEW250 34/22 A2990 RMK AO2 SLP126 T03390222

KMSP 191853Z 14014KT 10SM BKN034 25/18 A2982 RMK AO2 SLP094 T02500178

KORD 191851Z 06011KT 10SM SCT029 BKN150 BKN250 25/18 A2993 RMK AO2 SLP132 T02500183

KPDX 191853Z 21011KT 10SM -RA SCT028 BKN050 BKN070 BKN150 15/11 A2985 RMK AO2 RAB48 SLP108 P0000 T01500111

KPHL 191854Z 06006KT 8SM -RA BKN035 BKN046 OVC100 24/19 A2990 RMK AO2 RAB00 SLP123 P0000 T02390189 $

KPHX 191851Z 20012G18KT 10SM FEW095 FEW250 34/09 A2984 RMK AO2 SLP083 T03390094

KPIT 191851Z 07005KT 10SM SCT038 SCT250 28/17 A2999 RMK AO2 SLP153 T02830167

KSAN 191851Z 22008KT 10SM FEW027 22/14 A2995 RMK AO2 SLP142 T02220139

KSEA 191853Z 21010KT 10SM SCT018 BKN030 BKN120 14/09 A2976 RMK AO2 SLP082 T01440094 $

KSFO 191756Z 27005KT 10SM FEW030 BKN200 20/09 A3005 RMK AO2 SLP176 T02000094 10200 20144 51007

KSLC 191854Z 33003KT 10SM FEW045 FEW080 SCT100 BKN130 13/03 A2995 RMK AO2 SLP106 SH DSNT N-NE T01330033

KSTL 191851Z 19006KT 10SM FEW036 FEW250 30/20 A2991 RMK AO2 SLP118 T03000200

KTPA 191853Z 01010KT 10SM FEW050TCU FEW090 33/17 A2994 RMK AO2 RAB17E23 SLP138 TCU SW P0000 T03330172 $